Pascagoula, MS

8:49 AM CDT on October 19, 2017 (GMT -0500)
Lott International

Weather History for KPQL - November, 2012

Change the Weather History Date:

Thursday, November 22, 2012

  Actual Average Record
Temperature  
Mean Temperature 56 °F -  
Max Temperature 73 °F 66 °F 80 °F (1963)
Min Temperature 39 °F 48 °F 26 °F (2000)
Degree Days  
Heating Degree Days 9    
Growing Degree Days 6 (Base 50)    
Moisture  
Dew Point 44 °F    
Average Humidity 89    
Maximum Humidity 100    
Minimum Humidity 38    
Precipitation  
Precipitation 0.00 in - - ()
Sea Level Pressure  
Sea Level Pressure 30.20 in    
Wind  
Wind Speed 0 mph (SW)    
Max Wind Speed 9 mph    
Max Gust Speed -    
Visibility 3 miles    
Events Fog    
Averages and records for this station are not official NWS values.
T = Trace of Precipitation, MM = Missing Value Source: NWS Daily Summary

Daily Weather History Graph

Daily Weather History Graph

Search for Another Location

Airport or City:

Trip Planner

Search our weather history database for the weather conditions in past years. The results will help you decide how hot, cold, wet, or windy it might be!

Date:

Astronomy

Nov. 22, 2012 Rise Set
Actual Time 6:26 AM CST 4:54 PM CST
Civil Twilight 6:00 AM CST 5:20 PM CST
Nautical Twilight 5:31 AM CST 5:49 PM CST
Astronomical Twilight 5:02 AM CST 6:18 PM CST
Moon 1:21 PM CST (11/22) 1:06 AM CST (11/22)
Length of Visible Light 11h 19m
Length of Day
10h 27m
Waxing Gibbous, 71% of the Moon is Illuminated
Nov 22
Waxing Gibbous
Nov 28
Full
Dec 6
Last Quarter
Dec 13
New
Dec 19
First Quarter

Hourly Weather History & Observations

Time (CST) Temp. Dew Point Humidity Pressure Visibility Wind Dir Wind Speed Gust Speed Precip Events Conditions
12:10 AM 44.6 °F 42.8 °F 93% 30.19 in 3.0 mi Calm Calm - N/A   Partly Cloudy
12:25 AM 42.8 °F 42.8 °F 100% 30.19 in 3.0 mi Calm Calm - N/A   Mostly Cloudy
12:28 AM 42.8 °F 42.8 °F 100% 30.18 in 2.5 mi Calm Calm - N/A   Scattered Clouds
12:53 AM 42.1 °F 41.0 °F 96% 30.19 in 1.0 mi Calm Calm - N/A   Clear
1:01 AM 42.8 °F 41.0 °F 93% 30.18 in 0.8 mi Calm Calm - N/A   Clear
1:09 AM 42.8 °F 42.8 °F 100% 30.18 in 2.0 mi Calm Calm - N/A   Clear
1:18 AM 42.8 °F 41.0 °F 93% 30.18 in 0.8 mi Calm Calm - N/A   Clear
1:50 AM 42.8 °F 39.2 °F 87% 30.18 in 2.0 mi Calm Calm - N/A   Clear
1:51 AM 42.1 °F 39.9 °F 92% 30.19 in 2.5 mi Calm Calm - N/A   Clear
1:59 AM 41.0 °F 39.2 °F 93% 30.18 in 5.0 mi Calm Calm - N/A   Clear
2:21 AM 41.0 °F 39.2 °F 93% 30.18 in 2.5 mi Calm Calm - N/A   Clear
2:30 AM 42.8 °F 39.2 °F 87% 30.18 in 4.0 mi Calm Calm - N/A   Clear
2:53 AM 42.1 °F 39.9 °F 92% 30.19 in 4.0 mi Calm Calm - N/A   Clear
3:06 AM 41.0 °F 39.2 °F 93% 30.18 in 1.2 mi Calm Calm - N/A   Clear
3:17 AM 42.8 °F 42.8 °F 100% 30.18 in 3.0 mi Calm Calm - N/A   Clear
3:53 AM 41.0 °F 39.9 °F 96% 30.19 in 1.2 mi Calm Calm - N/A   Clear
4:03 AM 42.8 °F 41.0 °F 93% 30.18 in 0.8 mi Calm Calm - N/A   Clear
4:17 AM 42.8 °F 41.0 °F 93% 30.18 in 2.5 mi Calm Calm - N/A   Clear
4:24 AM 42.8 °F 41.0 °F 93% 30.18 in 4.0 mi Calm Calm - N/A   Clear
4:30 AM 42.8 °F 39.2 °F 87% 30.18 in 1.5 mi Calm Calm - N/A   Clear
4:36 AM 39.2 °F 39.2 °F 100% 30.18 in 0.2 mi Calm Calm - N/A Fog Fog
4:43 AM 42.8 °F 39.2 °F 87% 30.18 in 0.5 mi Calm Calm - N/A Fog Fog
4:47 AM 42.8 °F 41.0 °F 93% 30.18 in 2.5 mi Calm Calm - N/A   Clear
4:53 AM 39.9 °F 39.9 °F 100% 30.18 in 2.5 mi Calm Calm - N/A   Clear
5:12 AM 42.8 °F 39.2 °F 87% 30.18 in 0.8 mi Calm Calm - N/A   Clear
5:34 AM 39.2 °F 39.2 °F 100% 30.20 in 2.0 mi Calm Calm - N/A   Clear
5:48 AM 39.2 °F 37.4 °F 93% 30.20 in 1.8 mi Calm Calm - N/A   Clear
5:53 AM 39.9 °F 39.0 °F 97% 30.21 in 2.5 mi Calm Calm - N/A   Clear
6:28 AM 39.2 °F 37.4 °F 93% 30.21 in 1.2 mi Calm Calm - N/A   Clear
6:35 AM 41.0 °F 39.2 °F 93% 30.22 in 3.0 mi Calm Calm - N/A   Clear
6:53 AM 41.0 °F 41.0 °F 100% 30.22 in 2.0 mi Calm Calm - N/A   Clear
7:01 AM 42.8 °F 42.8 °F 100% 30.22 in 1.5 mi Calm Calm - N/A   Clear
7:10 AM 44.6 °F 42.8 °F 93% 30.22 in 3.0 mi Calm Calm - N/A   Clear
7:53 AM 52.0 °F 48.0 °F 86% 30.24 in 7.0 mi North 4.6 mph - N/A   Clear
8:53 AM 60.1 °F 51.1 °F 72% 30.25 in 10.0 mi Calm Calm - N/A   Clear
9:53 AM 68.0 °F 51.1 °F 55% 30.25 in 10.0 mi Calm Calm - N/A   Clear
10:53 AM 73.0 °F 46.9 °F 39% 30.24 in 10.0 mi Calm Calm - N/A   Clear
11:53 AM 73.9 °F 46.9 °F 38% 30.22 in 10.0 mi Variable 3.5 mph - N/A   Clear
12:53 PM 73.9 °F 46.9 °F 38% 30.20 in 10.0 mi Calm Calm - N/A   Clear
1:53 PM 73.0 °F 48.0 °F 41% 30.19 in 10.0 mi SSW 9.2 mph - N/A   Clear
2:53 PM 72.0 °F 48.0 °F 43% 30.19 in 10.0 mi SSW 6.9 mph - N/A   Clear
3:53 PM 70.0 °F 50.0 °F 49% 30.19 in 10.0 mi SSW 5.8 mph - N/A   Clear
4:53 PM 64.0 °F 54.0 °F 70% 30.19 in 10.0 mi Calm Calm - N/A   Clear
5:53 PM 55.0 °F 52.0 °F 89% 30.19 in 8.0 mi Calm Calm - N/A   Clear
6:53 PM 51.1 °F 50.0 °F 96% 30.20 in 5.0 mi Calm Calm - N/A   Clear
7:03 PM 50.0 °F 48.2 °F 94% 30.20 in 1.8 mi Calm Calm - N/A   Clear
7:21 PM 48.2 °F 48.2 °F 100% 30.20 in 0.5 mi Calm Calm - N/A Fog Fog
7:43 PM 48.2 °F 48.2 °F 100% 30.21 in 1.0 mi Calm Calm - N/A   Clear
7:53 PM 48.9 °F 46.9 °F 93% 30.21 in 0.8 mi Calm Calm - N/A   Clear
8:13 PM 46.4 °F 44.6 °F 93% 30.21 in 1.8 mi Calm Calm - N/A   Clear
8:20 PM 46.4 °F 44.6 °F 93% 30.21 in 2.0 mi Calm Calm - N/A   Clear
8:30 PM 46.4 °F 44.6 °F 93% 30.21 in 0.8 mi Calm Calm - N/A   Clear
8:51 PM 46.4 °F 44.6 °F 93% 30.21 in 2.0 mi Calm Calm - N/A   Clear
8:53 PM 48.0 °F 46.0 °F 93% 30.22 in 3.0 mi Calm Calm - N/A   Clear
9:05 PM 46.4 °F 46.4 °F 100% 30.21 in 1.2 mi Calm Calm - N/A   Clear
9:09 PM 46.4 °F 46.4 °F 100% 30.22 in 0.2 mi Calm Calm - N/A Fog Fog
9:17 PM 46.4 °F 44.6 °F 93% 30.22 in 0.5 mi Calm Calm - N/A Fog Fog
9:28 PM 46.4 °F 46.4 °F 100% 30.22 in 2.0 mi Calm Calm - N/A   Clear
9:36 PM 46.4 °F 46.4 °F 100% 30.22 in 0.8 mi Calm Calm - N/A   Clear
9:53 PM 44.1 °F 44.1 °F 100% 30.22 in 0.5 mi Calm Calm - N/A Fog Fog
10:02 PM 46.4 °F 44.6 °F 93% 30.22 in 0.2 mi Calm Calm - N/A Fog Fog
10:18 PM 44.6 °F 44.6 °F 100% 30.22 in 1.0 mi Calm Calm - N/A   Clear
10:40 PM 44.6 °F 44.6 °F 100% 30.22 in 2.5 mi Calm Calm - N/A   Partly Cloudy
10:50 PM 44.6 °F 42.8 °F 93% 30.22 in 1.8 mi Calm Calm - N/A   Mostly Cloudy
10:53 PM 45.0 °F 43.0 °F 93% 30.22 in 1.0 mi Calm Calm - N/A   Mist
10:58 PM 46.4 °F 44.6 °F 93% 30.22 in 0.8 mi Calm Calm - N/A   Mist
11:12 PM 46.4 °F 44.6 °F 93% 30.22 in 1.0 mi Calm Calm - N/A   Mist
11:22 PM 44.6 °F 44.6 °F 100% 30.22 in 0.2 mi Calm Calm - N/A Fog Fog
11:29 PM 44.6 °F 42.8 °F 93% 30.22 in 0.2 mi Calm Calm - N/A Fog Fog
11:36 PM 44.6 °F 42.8 °F 93% 30.22 in 0.5 mi Calm Calm - N/A Fog Fog
11:53 PM 44.1 °F 42.1 °F 93% 30.22 in 0.8 mi Calm Calm - N/A   Mist